Las Plumas, California
Current Conditions -  °F | °C
As of 3:53 AM on Monday 22 Dec 2014 (Local Time) from KOVE Reporting Station
Overcast Overcast  
Wind Chill: 55°   Ceiling: 1700
Heat Index: 55°   Visibility: 10mi
Dew Point: 51°   Wind: 3mph
Humidity: 86%   Direction: 360°N
Pressure: 30.27"   Gusts: NA
Location:  39.5324°N, 121.648°W
Report Text: KOVE 221153Z AUTO 36003KT 10SM OVC017 13/11 A3027 RMK AO2 SLP254 T01280106 10139 20111 56002
Loading
Personal Weather Stations






























Interactive Weather Map New forecast layout! Learn more

10-Day Weather Forecast

Advertisements
Track Severe Weather on mobile